createdAt,value
2023-05-07T00:00:02.230Z,13.6
2023-05-07T00:01:01.823Z,13.6
2023-05-07T00:02:01.412Z,13.5
2023-05-07T00:03:02.057Z,13.5
2023-05-07T00:04:01.721Z,13.6
2023-05-07T00:05:02.277Z,13.6
2023-05-07T00:06:01.936Z,13.6
2023-05-07T00:07:01.419Z,13.6
2023-05-07T00:08:02.043Z,13.5
2023-05-07T00:09:01.648Z,13.5
2023-05-07T00:10:02.237Z,13.5
2023-05-07T00:11:01.837Z,13.6
2023-05-07T00:12:01.432Z,13.5
2023-05-07T00:13:02.149Z,13.5
2023-05-07T00:14:01.663Z,13.4
2023-05-07T00:15:02.268Z,13.4
2023-05-07T00:16:01.904Z,13.3
2023-05-07T00:17:01.487Z,13.3
2023-05-07T00:18:02.095Z,13.3
2023-05-07T00:19:01.739Z,13.3
2023-05-07T00:20:01.285Z,13.3
2023-05-07T00:21:01.871Z,13.2
2023-05-07T00:22:01.559Z,13.2
2023-05-07T00:23:02.044Z,13.3
2023-05-07T00:24:01.649Z,13.2
2023-05-07T00:25:02.228Z,13.3
2023-05-07T00:26:01.830Z,13.3
2023-05-07T00:27:01.418Z,13.3
2023-05-07T00:28:02.005Z,13.4
2023-05-07T00:29:01.622Z,13.5
2023-05-07T00:30:02.241Z,13.4
2023-05-07T00:31:01.858Z,13.5
2023-05-07T00:32:01.519Z,13.5
2023-05-07T00:33:02.061Z,13.5
2023-05-07T00:34:01.702Z,13.4
2023-05-07T00:35:02.249Z,13.4
2023-05-07T00:36:01.847Z,13.4
2023-05-07T00:37:01.460Z,13.3
2023-05-07T00:38:02.140Z,13.5
2023-05-07T00:39:01.709Z,13.4
2023-05-07T00:40:02.332Z,13.4
2023-05-07T00:41:01.938Z,13.3
2023-05-07T00:42:01.489Z,13.4
2023-05-07T00:43:02.053Z,13.3
2023-05-07T00:44:01.686Z,13.3
2023-05-07T00:45:02.230Z,13.3
2023-05-07T00:46:01.906Z,13.4
2023-05-07T00:47:01.567Z,13.3
2023-05-07T00:48:02.163Z,13.3
2023-05-07T00:49:01.731Z,13.3
2023-05-07T00:50:01.283Z,13.4
2023-05-07T00:51:01.856Z,13.4
2023-05-07T00:52:01.449Z,13.3
2023-05-07T00:53:02.020Z,13.3
2023-05-07T00:54:01.742Z,13.3
2023-05-07T00:55:02.185Z,13.3
2023-05-07T00:56:01.776Z,13.3
2023-05-07T00:57:01.354Z,13.3
2023-05-07T00:58:01.934Z,13.3
2023-05-07T00:59:01.576Z,13.3
2023-05-07T01:00:02.113Z,13.2
2023-05-07T01:01:01.730Z,13.2
2023-05-07T01:02:01.313Z,13.3
2023-05-07T01:03:01.889Z,13.2
2023-05-07T01:04:01.531Z,13.3
2023-05-07T01:05:02.104Z,13.3
2023-05-07T01:06:01.768Z,13.3
2023-05-07T01:07:02.005Z,13.3
2023-05-07T01:08:02.031Z,13.3
2023-05-07T01:09:01.545Z,13.3
2023-05-07T01:10:02.229Z,13.3
2023-05-07T01:11:01.787Z,13.3
2023-05-07T01:12:01.370Z,13.3
2023-05-07T01:13:01.959Z,13.3
2023-05-07T01:14:01.600Z,13.3
2023-05-07T01:15:02.170Z,13.3
2023-05-07T01:16:01.764Z,13.2
2023-05-07T01:17:01.368Z,13.2
2023-05-07T01:18:01.980Z,13.2
2023-05-07T01:19:01.561Z,13.3
2023-05-07T01:20:02.135Z,13.2
2023-05-07T01:21:01.753Z,13.3
2023-05-07T01:22:01.319Z,13.3
2023-05-07T01:23:01.906Z,13.3
2023-05-07T01:24:01.507Z,13.3
2023-05-07T01:25:02.084Z,13.3
2023-05-07T01:26:01.770Z,13.3
2023-05-07T01:27:02.269Z,13.3
2023-05-07T01:28:01.862Z,13.3
2023-05-07T01:29:01.461Z,13.3
2023-05-07T01:30:02.045Z,13.3
2023-05-07T01:31:01.675Z,13.3
2023-05-07T01:32:02.278Z,13.3
2023-05-07T01:33:01.978Z,13.3
2023-05-07T01:34:01.455Z,13.3
2023-05-07T01:35:02.042Z,13.4
2023-05-07T01:36:01.641Z,13.3
2023-05-07T01:37:02.217Z,13.4
2023-05-07T01:38:01.826Z,13.5
2023-05-07T01:39:01.418Z,13.5
2023-05-07T01:40:02.007Z,13.5
2023-05-07T01:41:01.599Z,13.4
2023-05-07T01:42:02.281Z,13.4
2023-05-07T01:43:01.854Z,13.4
2023-05-07T01:44:01.426Z,13.5
2023-05-07T01:45:01.989Z,13.4
2023-05-07T01:46:01.636Z,13.4
2023-05-07T01:47:01.776Z,13.4
2023-05-07T01:48:01.399Z,13.4
2023-05-07T01:49:01.074Z,13.4
2023-05-07T01:50:01.668Z,13.4
2023-05-07T01:51:01.290Z,13.3
2023-05-07T01:52:00.860Z,13.4
2023-05-07T01:53:01.465Z,13.4
2023-05-07T01:54:01.074Z,13.3
2023-05-07T01:55:01.646Z,13.3
2023-05-07T01:56:01.266Z,13.3
2023-05-07T01:57:00.828Z,13.3
2023-05-07T01:58:01.522Z,13.3
2023-05-07T01:59:01.942Z,13.3
2023-05-07T02:00:01.699Z,13.4
2023-05-07T02:01:01.284Z,13.4
2023-05-07T02:02:00.858Z,13.3
2023-05-07T02:03:01.525Z,13.3
2023-05-07T02:04:01.077Z,13.4
2023-05-07T02:05:01.654Z,13.4
2023-05-07T02:06:01.269Z,13.4
2023-05-07T02:07:00.843Z,13.3
2023-05-07T02:08:01.400Z,13.4
2023-05-07T02:09:01.006Z,13.4
2023-05-07T02:10:01.598Z,13.4
2023-05-07T02:11:01.206Z,13.3
2023-05-07T02:12:01.771Z,13.3
2023-05-07T02:13:01.377Z,13.2
2023-05-07T02:14:01.105Z,13.2
2023-05-07T02:15:01.609Z,13.2
2023-05-07T02:16:01.270Z,13.3
2023-05-07T02:17:00.814Z,13.3
2023-05-07T02:18:01.476Z,13.2
2023-05-07T02:19:01.035Z,13.2
2023-05-07T02:20:01.611Z,13.3
2023-05-07T02:21:01.234Z,13.3
2023-05-07T02:22:01.772Z,13.3
2023-05-07T02:23:01.456Z,13.3
2023-05-07T02:24:00.999Z,13.3
2023-05-07T02:25:01.586Z,13.3
2023-05-07T02:26:01.204Z,13.3
2023-05-07T02:27:01.788Z,13.3
2023-05-07T02:28:01.395Z,13.2
2023-05-07T02:29:00.978Z,13.2
2023-05-07T02:30:01.595Z,13.2
2023-05-07T02:31:01.208Z,13.2
2023-05-07T02:32:01.835Z,13.2
2023-05-07T02:33:01.469Z,13.2
2023-05-07T02:34:01.019Z,13.1
2023-05-07T02:35:01.601Z,13.2
2023-05-07T02:36:01.236Z,13.2
2023-05-07T02:37:00.785Z,13.2
2023-05-07T02:38:01.376Z,13.2
2023-05-07T02:39:00.993Z,13.2
2023-05-07T02:40:01.564Z,13.2
2023-05-07T02:41:01.192Z,13.2
2023-05-07T02:42:01.753Z,13.1
2023-05-07T02:43:01.347Z,13.2
2023-05-07T02:44:00.954Z,13.2
2023-05-07T02:45:01.557Z,13.2
2023-05-07T02:46:01.303Z,13.1
2023-05-07T02:47:01.732Z,13.2
2023-05-07T02:48:01.489Z,13.1
2023-05-07T02:49:00.949Z,13.2
2023-05-07T02:50:01.526Z,13.2
2023-05-07T02:51:01.111Z,13.2
2023-05-07T02:52:01.688Z,13.1
2023-05-07T02:53:01.685Z,13.2
2023-05-07T02:54:00.923Z,13.1
2023-05-07T02:55:01.482Z,13.2
2023-05-07T02:56:01.100Z,13.2
2023-05-07T02:57:01.675Z,13.1
2023-05-07T02:58:01.296Z,13.2
2023-05-07T02:59:00.850Z,13.1
2023-05-07T03:00:01.433Z,13.1
2023-05-07T03:01:01.105Z,13.1
2023-05-07T03:02:01.648Z,13.2
2023-05-07T03:03:01.284Z,13.2
2023-05-07T03:04:00.849Z,13.2
2023-05-07T03:05:01.400Z,13.2
2023-05-07T03:06:00.998Z,13.2
2023-05-07T03:07:01.571Z,13.2
2023-05-07T03:08:01.179Z,13.1
2023-05-07T03:09:01.780Z,13.1
2023-05-07T03:10:01.419Z,13.1
2023-05-07T03:11:00.971Z,13.1
2023-05-07T03:12:01.553Z,13.2
2023-05-07T03:13:01.162Z,13.1
2023-05-07T03:14:01.754Z,13.1
2023-05-07T03:15:01.370Z,13.1
2023-05-07T03:16:01.009Z,13.1
2023-05-07T03:17:01.538Z,13.1
2023-05-07T03:18:01.321Z,13.1
2023-05-07T03:19:01.745Z,13.1
2023-05-07T03:20:01.388Z,13.1
2023-05-07T03:21:01.008Z,13.1
2023-05-07T03:22:01.525Z,13.1
2023-05-07T03:23:01.115Z,13.1
2023-05-07T03:24:01.699Z,13.1
2023-05-07T03:25:01.309Z,13.1
2023-05-07T03:26:00.895Z,13.1
2023-05-07T03:27:01.459Z,13
2023-05-07T03:28:01.056Z,13.1
2023-05-07T03:29:01.618Z,13.1
2023-05-07T03:30:01.221Z,13.1
2023-05-07T03:31:00.842Z,13
2023-05-07T03:32:01.398Z,13.1
2023-05-07T03:33:01.017Z,13.1
2023-05-07T03:34:01.675Z,13.1
2023-05-07T03:35:01.232Z,13
2023-05-07T03:36:00.819Z,13.1
2023-05-07T03:37:01.377Z,13.1
2023-05-07T03:38:00.964Z,13
2023-05-07T03:39:01.535Z,13.1
2023-05-07T03:40:01.132Z,13.1
2023-05-07T03:41:01.730Z,13.1
2023-05-07T03:42:01.335Z,13
2023-05-07T03:43:00.915Z,13
2023-05-07T03:44:01.508Z,13
2023-05-07T03:45:01.132Z,13
2023-05-07T03:46:01.739Z,13
2023-05-07T03:47:01.357Z,13.1
2023-05-07T03:48:00.977Z,13.1
2023-05-07T03:49:01.591Z,13.1
2023-05-07T03:50:01.248Z,13
2023-05-07T03:51:01.733Z,13
2023-05-07T03:52:01.324Z,13.1
2023-05-07T03:53:00.943Z,13.1
2023-05-07T03:54:01.487Z,13.1
2023-05-07T03:55:01.104Z,13
2023-05-07T03:56:01.682Z,13.1
2023-05-07T03:57:01.317Z,13
2023-05-07T03:58:00.882Z,13.1
2023-05-07T03:59:01.472Z,13
2023-05-07T04:00:01.062Z,13
2023-05-07T04:01:01.648Z,13
2023-05-07T04:02:02.933Z,13
2023-05-07T04:03:01.796Z,13
2023-05-07T04:04:01.518Z,13
2023-05-07T04:05:01.068Z,13
2023-05-07T04:06:01.685Z,13
2023-05-07T04:07:01.276Z,13
2023-05-07T04:08:00.848Z,13
2023-05-07T04:09:01.425Z,13
2023-05-07T04:10:01.018Z,13
2023-05-07T04:11:01.718Z,13.1
2023-05-07T04:12:01.251Z,13.1
2023-05-07T04:13:00.865Z,13
2023-05-07T04:14:01.422Z,13
2023-05-07T04:15:01.030Z,13
2023-05-07T04:16:01.594Z,13
2023-05-07T04:17:01.328Z,13
2023-05-07T04:18:01.829Z,13
2023-05-07T04:19:01.440Z,13
2023-05-07T04:20:01.025Z,13.1
2023-05-07T04:21:01.576Z,13.1
2023-05-07T04:22:01.266Z,13
2023-05-07T04:23:01.757Z,13.1
2023-05-07T04:24:01.347Z,13.1
2023-05-07T04:25:00.963Z,13.1
2023-05-07T04:26:01.515Z,13.1
2023-05-07T04:27:01.100Z,13.1
2023-05-07T04:28:01.674Z,13.1
2023-05-07T04:29:01.287Z,13.2
2023-05-07T04:30:00.879Z,13.2
2023-05-07T04:31:01.423Z,13.3
2023-05-07T04:32:01.110Z,13.4
2023-05-07T04:33:01.640Z,13.3
2023-05-07T04:34:01.262Z,13.3
2023-05-07T04:35:00.880Z,13.3
2023-05-07T04:36:01.400Z,13.3
2023-05-07T04:37:00.998Z,13.4
2023-05-07T04:38:01.662Z,13.4
2023-05-07T04:39:01.230Z,13.4
2023-05-07T04:40:01.814Z,13.4
2023-05-07T04:41:01.402Z,13.4
2023-05-07T04:42:01.011Z,13.4
2023-05-07T04:43:01.600Z,13.5
2023-05-07T04:44:01.213Z,13.4
2023-05-07T04:45:01.782Z,13.5
2023-05-07T04:46:01.428Z,13.5
2023-05-07T04:47:00.997Z,13.5
2023-05-07T04:48:01.674Z,13.6
2023-05-07T04:49:01.323Z,13.7
2023-05-07T04:50:00.824Z,13.7
2023-05-07T04:51:01.397Z,13.7
2023-05-07T04:52:01.026Z,13.6
2023-05-07T04:53:01.578Z,13.6
2023-05-07T04:54:01.277Z,13.7
2023-05-07T04:55:01.759Z,13.7
2023-05-07T04:56:01.351Z,13.8
2023-05-07T04:57:00.961Z,13.8
2023-05-07T04:58:01.529Z,13.9
2023-05-07T04:59:01.140Z,14
2023-05-07T05:00:01.717Z,14
2023-05-07T05:01:01.518Z,14
2023-05-07T05:02:00.985Z,14.1
2023-05-07T05:03:01.630Z,14.1
2023-05-07T05:04:01.416Z,14.3
2023-05-07T05:05:01.257Z,14.4
2023-05-07T05:06:00.865Z,14.4
2023-05-07T05:07:01.455Z,14.5
2023-05-07T05:08:01.571Z,14.5
2023-05-07T05:09:01.169Z,14.6
2023-05-07T05:10:01.879Z,14.6
2023-05-07T05:11:01.492Z,14.6
2023-05-07T05:12:01.018Z,14.6
2023-05-07T05:13:01.610Z,14.5
2023-05-07T05:14:01.234Z,14.5
2023-05-07T05:15:00.837Z,14.3
2023-05-07T05:16:01.543Z,14.3
2023-05-07T05:17:01.086Z,14.2
2023-05-07T05:18:01.669Z,14.2
2023-05-07T05:19:01.279Z,14.3
2023-05-07T05:20:00.876Z,14.4
2023-05-07T05:21:01.466Z,14.5
2023-05-07T05:22:01.076Z,14.3
2023-05-07T05:23:01.648Z,14.3
2023-05-07T05:24:01.245Z,14.3
2023-05-07T05:25:00.828Z,14.4
2023-05-07T05:26:01.592Z,14.4
2023-05-07T05:27:01.526Z,14.4
2023-05-07T05:28:01.193Z,14.4
2023-05-07T05:29:01.805Z,14.5
2023-05-07T05:30:01.401Z,14.5
2023-05-07T05:31:01.087Z,14.5
2023-05-07T05:32:01.802Z,14.4
2023-05-07T05:33:01.345Z,14.5
2023-05-07T05:34:00.939Z,14.5
2023-05-07T05:35:01.510Z,14.6
2023-05-07T05:36:01.105Z,14.6
2023-05-07T05:37:01.668Z,14.6
2023-05-07T05:38:01.255Z,14.7
2023-05-07T05:39:00.860Z,14.5
2023-05-07T05:40:01.499Z,14.6
2023-05-07T05:41:01.062Z,14.6
2023-05-07T05:42:01.733Z,14.7
2023-05-07T05:43:01.311Z,14.8
2023-05-07T05:44:00.882Z,14.8
2023-05-07T05:45:01.488Z,15
2023-05-07T05:46:01.172Z,14.9
2023-05-07T05:47:01.666Z,15.1
2023-05-07T05:48:01.337Z,15.1
2023-05-07T05:49:00.839Z,15.2
2023-05-07T05:50:01.511Z,15
2023-05-07T05:51:01.084Z,15.1
2023-05-07T05:52:01.663Z,15.1
2023-05-07T05:53:01.262Z,15.1
2023-05-07T05:54:00.855Z,15.2
2023-05-07T05:55:01.411Z,15.3
2023-05-07T05:56:01.000Z,15.4
2023-05-07T05:57:01.582Z,15.5
2023-05-07T05:58:01.270Z,15.4
2023-05-07T05:59:01.818Z,15.4
2023-05-07T06:00:01.497Z,15.4
2023-05-07T06:01:01.023Z,15.3
2023-05-07T06:02:01.630Z,15.3
2023-05-07T06:03:01.378Z,15.3
2023-05-07T06:04:01.802Z,15.4
2023-05-07T06:05:01.432Z,15.4
2023-05-07T06:06:01.056Z,15.4
2023-05-07T06:07:01.621Z,15.6
2023-05-07T06:08:01.209Z,15.5
2023-05-07T06:09:01.799Z,15.6
2023-05-07T06:10:01.402Z,15.6
2023-05-07T06:11:01.262Z,15.6
2023-05-07T06:12:01.583Z,15.7
2023-05-07T06:13:01.224Z,15.7
2023-05-07T06:14:01.914Z,15.7
2023-05-07T06:15:01.500Z,15.7
2023-05-07T06:16:01.049Z,15.6
2023-05-07T06:17:01.686Z,15.7
2023-05-07T06:18:01.263Z,15.8
2023-05-07T06:19:00.843Z,15.9
2023-05-07T06:20:01.470Z,16.2
2023-05-07T06:21:01.065Z,16.3
2023-05-07T06:22:01.653Z,16.4
2023-05-07T06:23:01.251Z,16.5
2023-05-07T06:24:00.842Z,16.6
2023-05-07T06:25:01.440Z,16.6
2023-05-07T06:26:01.045Z,16.6
2023-05-07T06:27:01.626Z,16.5
2023-05-07T06:28:01.226Z,16.6
2023-05-07T06:29:01.813Z,16.5
2023-05-07T06:30:01.449Z,16.7
2023-05-07T06:31:01.034Z,16.6
2023-05-07T06:32:01.654Z,16.6
2023-05-07T06:33:01.281Z,16.5
2023-05-07T06:34:00.877Z,16.4
2023-05-07T06:35:01.431Z,16.5
2023-05-07T06:36:01.024Z,16.5
2023-05-07T06:37:01.602Z,16.6
2023-05-07T06:38:01.197Z,16.7
2023-05-07T06:39:01.797Z,16.6
2023-05-07T06:40:01.385Z,16.8
2023-05-07T06:41:00.975Z,16.7
2023-05-07T06:42:01.591Z,16.6
2023-05-07T06:43:01.191Z,16.6
2023-05-07T06:44:01.780Z,16.6
2023-05-07T06:45:01.377Z,16.7
2023-05-07T06:46:01.122Z,16.7
2023-05-07T06:47:01.581Z,16.7
2023-05-07T06:48:01.257Z,16.6
2023-05-07T06:49:01.749Z,16.8
2023-05-07T06:50:01.413Z,16.7
2023-05-07T06:51:00.996Z,16.5
2023-05-07T06:52:01.589Z,16.5
2023-05-07T06:53:01.182Z,16.6
2023-05-07T06:54:01.767Z,16.6
2023-05-07T06:55:01.380Z,16.7
2023-05-07T06:56:00.981Z,16.7
2023-05-07T06:57:01.580Z,16.7
2023-05-07T06:58:01.174Z,16.8
2023-05-07T06:59:01.759Z,16.7
2023-05-07T07:00:01.377Z,16.7
2023-05-07T07:01:01.113Z,16.7
2023-05-07T07:02:01.749Z,16.8
2023-05-07T07:03:01.254Z,16.9
2023-05-07T07:04:01.814Z,16.9
2023-05-07T07:05:01.460Z,16.6
2023-05-07T07:06:01.051Z,16.8
2023-05-07T07:07:01.672Z,16.7
2023-05-07T07:08:01.264Z,16.8
2023-05-07T07:09:00.863Z,16.9
2023-05-07T07:10:01.448Z,16.9
2023-05-07T07:11:01.052Z,16.8
2023-05-07T07:12:01.649Z,16.9
2023-05-07T07:13:01.322Z,17
2023-05-07T07:14:01.852Z,16.8
2023-05-07T07:15:01.443Z,16.9
2023-05-07T07:16:01.071Z,16.9
2023-05-07T07:17:01.620Z,17.1
2023-05-07T07:18:01.424Z,17.1
2023-05-07T07:19:01.838Z,17.3
2023-05-07T07:20:01.431Z,17.3
2023-05-07T07:21:01.020Z,17.4
2023-05-07T07:22:01.605Z,17.3
2023-05-07T07:23:01.191Z,17.4
2023-05-07T07:24:01.797Z,17.1
2023-05-07T07:25:01.401Z,17.2
2023-05-07T07:26:00.999Z,17.3
2023-05-07T07:27:01.623Z,17.3
2023-05-07T07:28:01.244Z,17.3
2023-05-07T07:29:01.815Z,17
2023-05-07T07:30:01.409Z,16.9
2023-05-07T07:31:01.050Z,17
2023-05-07T07:32:01.769Z,16.8
2023-05-07T07:33:01.357Z,16.8
2023-05-07T07:34:01.019Z,16.9
2023-05-07T07:35:01.444Z,17
2023-05-07T07:36:01.046Z,17.1
2023-05-07T07:37:01.649Z,17.2
2023-05-07T07:38:01.239Z,17.3
2023-05-07T07:39:01.825Z,17.3
2023-05-07T07:40:01.478Z,17.4
2023-05-07T07:41:01.073Z,17.3
2023-05-07T07:42:01.681Z,17
2023-05-07T07:43:01.269Z,17.1
2023-05-07T07:44:00.862Z,17
2023-05-07T07:45:01.444Z,17
2023-05-07T07:46:01.050Z,16.9
2023-05-07T07:47:01.686Z,17
2023-05-07T07:48:01.293Z,17.2
2023-05-07T07:49:00.886Z,17.4
2023-05-07T07:50:01.557Z,17.3
2023-05-07T07:51:01.175Z,17.4
2023-05-07T07:52:01.755Z,17.4
2023-05-07T07:53:01.354Z,17.4
2023-05-07T07:54:00.960Z,17.3
2023-05-07T07:55:01.516Z,17.2
2023-05-07T07:56:01.887Z,17.3
2023-05-07T07:57:01.523Z,17.3
2023-05-07T07:58:01.127Z,17.3
2023-05-07T07:59:01.714Z,17.4
2023-05-07T08:00:01.333Z,17.3
2023-05-07T08:01:00.904Z,17.5
2023-05-07T08:02:01.502Z,17.7
2023-05-07T08:03:01.345Z,17.8
2023-05-07T08:04:01.782Z,18
2023-05-07T08:05:01.365Z,18
2023-05-07T08:06:01.042Z,17.8
2023-05-07T08:07:01.521Z,17.9
2023-05-07T08:08:01.128Z,17.8
2023-05-07T08:09:01.703Z,17.7
2023-05-07T08:10:01.310Z,17.6
2023-05-07T08:11:00.885Z,17.8
2023-05-07T08:12:01.466Z,18
2023-05-07T08:13:01.115Z,18.1
2023-05-07T08:14:01.648Z,18.2
2023-05-07T08:15:01.301Z,18.3
2023-05-07T08:16:01.848Z,18.6
2023-05-07T08:17:01.496Z,18.5
2023-05-07T08:18:01.261Z,18.3
2023-05-07T08:19:01.669Z,18
2023-05-07T08:20:01.292Z,18.1
2023-05-07T08:21:00.910Z,18.1
2023-05-07T08:22:01.586Z,18.1
2023-05-07T08:23:01.154Z,18.2
2023-05-07T08:24:01.717Z,18.3
2023-05-07T08:25:01.316Z,18.4
2023-05-07T08:26:00.917Z,18.4
2023-05-07T08:27:01.503Z,18.4
2023-05-07T08:28:01.096Z,18.3
2023-05-07T08:29:01.676Z,18.3
2023-05-07T08:30:01.264Z,18.1
2023-05-07T08:31:01.982Z,18.1
2023-05-07T08:32:01.628Z,18.1
2023-05-07T08:33:01.151Z,18.2
2023-05-07T08:34:01.676Z,18.3
2023-05-07T08:35:01.270Z,18.3
2023-05-07T08:36:01.868Z,18.4
2023-05-07T08:37:01.471Z,18.5
2023-05-07T08:38:01.162Z,18.3
2023-05-07T08:39:01.657Z,18.3
2023-05-07T08:40:01.263Z,18.3
2023-05-07T08:41:01.833Z,18.4
2023-05-07T08:42:01.439Z,18.3
2023-05-07T08:43:01.052Z,18.4
2023-05-07T08:44:01.631Z,18.6
2023-05-07T08:45:01.237Z,18.5
2023-05-07T08:46:01.825Z,18.8
2023-05-07T08:47:01.479Z,18.8
2023-05-07T08:48:01.080Z,18.8
2023-05-07T08:49:01.653Z,18.8
2023-05-07T08:50:01.237Z,18.8
2023-05-07T08:51:01.809Z,18.9
2023-05-07T08:52:01.453Z,18.7
2023-05-07T08:53:01.071Z,19
2023-05-07T08:54:01.780Z,19.1
2023-05-07T08:55:01.289Z,19.1
2023-05-07T08:56:00.883Z,19.2
2023-05-07T08:57:01.469Z,18.8
2023-05-07T08:58:01.075Z,18.5
2023-05-07T08:59:01.683Z,18.9
2023-05-07T09:00:01.296Z,18.8
2023-05-07T09:01:01.854Z,18.9
2023-05-07T09:02:01.544Z,18.5
2023-05-07T09:03:01.116Z,18.4
2023-05-07T09:04:01.703Z,18.5
2023-05-07T09:05:01.361Z,18.8
2023-05-07T09:06:00.904Z,18.8
2023-05-07T09:07:01.485Z,18.8
2023-05-07T09:08:01.073Z,18.6
2023-05-07T09:09:01.661Z,18.6
2023-05-07T09:10:01.390Z,18.7
2023-05-07T09:11:01.835Z,18.9
2023-05-07T09:12:01.438Z,19
2023-05-07T09:13:01.103Z,18.8
2023-05-07T09:14:01.628Z,19
2023-05-07T09:15:01.250Z,19.2
2023-05-07T09:16:01.800Z,19.2
2023-05-07T09:17:01.418Z,19.4
2023-05-07T09:18:01.072Z,19.4
2023-05-07T09:19:01.637Z,19.6
2023-05-07T09:20:01.276Z,19.6
2023-05-07T09:21:01.836Z,19.5
2023-05-07T09:22:01.435Z,19.5
2023-05-07T09:23:01.041Z,19.2
2023-05-07T09:24:01.611Z,19.2
2023-05-07T09:25:01.253Z,19.1
2023-05-07T09:26:01.885Z,19.1
2023-05-07T09:27:01.492Z,19.3
2023-05-07T09:28:01.041Z,19.4
2023-05-07T09:29:01.617Z,19.3
2023-05-07T09:30:01.224Z,19.4
2023-05-07T09:31:01.816Z,19.4
2023-05-07T09:32:01.443Z,19.6
2023-05-07T09:33:01.120Z,19.7
2023-05-07T09:34:01.620Z,19.8
2023-05-07T09:35:01.230Z,19.8
2023-05-07T09:36:01.834Z,19.7
2023-05-07T09:37:01.427Z,19.7
2023-05-07T09:38:03.163Z,20.1
2023-05-07T09:39:01.572Z,20.3
2023-05-07T09:40:01.166Z,20.3
2023-05-07T09:41:01.744Z,20.2
2023-05-07T09:42:01.578Z,20.1
2023-05-07T09:43:00.910Z,20
2023-05-07T09:44:01.526Z,20.1
2023-05-07T09:45:01.117Z,20.3
2023-05-07T09:46:01.726Z,20.2
2023-05-07T09:47:01.365Z,20.3
2023-05-07T09:48:00.990Z,20
2023-05-07T09:49:01.562Z,20
2023-05-07T09:50:01.151Z,19.7
2023-05-07T09:51:01.740Z,20
2023-05-07T09:52:01.389Z,20.1
2023-05-07T09:53:00.914Z,20.1
2023-05-07T09:54:01.515Z,20.3
2023-05-07T09:55:01.109Z,20.5
2023-05-07T09:56:03.663Z,20.3
2023-05-07T09:57:01.248Z,20.1
2023-05-07T09:58:02.036Z,20.1
2023-05-07T09:59:01.661Z,20.3
2023-05-07T10:00:01.099Z,20.1
2023-05-07T10:01:01.767Z,20.2
2023-05-07T10:02:03.489Z,20.2
2023-05-07T10:03:02.025Z,20.1
2023-05-07T10:04:01.814Z,20.2
2023-05-07T10:05:01.185Z,20.2
2023-05-07T10:06:01.753Z,20.3
2023-05-07T10:07:01.343Z,20.6
2023-05-07T10:08:02.106Z,20.5
2023-05-07T10:09:01.260Z,20.6
2023-05-07T10:10:01.855Z,20.7
2023-05-07T10:11:01.467Z,21
2023-05-07T10:12:01.076Z,20.9
2023-05-07T10:13:01.704Z,21
2023-05-07T10:14:03.492Z,20.7
2023-05-07T10:15:01.902Z,20.9
2023-05-07T10:16:01.505Z,20.9
2023-05-07T10:17:01.115Z,20.7
2023-05-07T10:18:01.756Z,20.7
2023-05-07T10:19:01.374Z,20.7
2023-05-07T10:20:02.182Z,20.6
2023-05-07T10:21:01.472Z,20.4
2023-05-07T10:22:01.068Z,20.3
2023-05-07T10:23:01.678Z,20.4
2023-05-07T10:24:01.273Z,20.4
2023-05-07T10:25:01.873Z,20.5
2023-05-07T10:26:01.515Z,20.4
2023-05-07T10:27:01.085Z,20.6
2023-05-07T10:28:01.704Z,20.5
2023-05-07T10:29:01.298Z,20.5
2023-05-07T10:30:01.962Z,20.7
2023-05-07T10:31:01.568Z,20.5
2023-05-07T10:32:01.116Z,20.6
2023-05-07T10:33:01.759Z,20.5
2023-05-07T10:34:01.381Z,20.6
2023-05-07T10:35:00.939Z,20.3
2023-05-07T10:36:01.532Z,20.1
2023-05-07T10:37:01.131Z,20.2
2023-05-07T10:38:01.722Z,20.3
2023-05-07T10:39:01.333Z,20.4
2023-05-07T10:40:01.909Z,20.4
2023-05-07T10:41:01.516Z,20.6
2023-05-07T10:42:01.109Z,20.8
2023-05-07T10:43:01.722Z,20.8
2023-05-07T10:44:01.372Z,20.6
2023-05-07T10:45:00.937Z,20.4
2023-05-07T10:46:01.696Z,20.5
2023-05-07T10:47:01.184Z,20.6
2023-05-07T10:48:01.805Z,20.8
2023-05-07T10:49:01.444Z,20.8
2023-05-07T10:50:01.054Z,21
2023-05-07T10:51:01.580Z,21.1
2023-05-07T10:52:01.177Z,21
2023-05-07T10:53:02.240Z,21
2023-05-07T10:54:01.412Z,21
2023-05-07T10:55:00.991Z,21.3
2023-05-07T10:56:01.577Z,21.2
2023-05-07T10:57:01.177Z,21
2023-05-07T10:58:01.783Z,20.9
2023-05-07T10:59:01.381Z,21
2023-05-07T11:00:00.962Z,21.3
2023-05-07T11:01:01.529Z,21.1
2023-05-07T11:02:01.240Z,21.1
2023-05-07T11:03:01.810Z,21.3
2023-05-07T11:04:01.363Z,21.3
2023-05-07T11:05:00.964Z,21.1
2023-05-07T11:06:01.525Z,20.9
2023-05-07T11:07:01.112Z,20.8
2023-05-07T11:08:01.924Z,20.9
2023-05-07T11:09:01.368Z,21.2
2023-05-07T11:10:00.944Z,21.1
2023-05-07T11:11:01.540Z,21.2
2023-05-07T11:12:01.138Z,21.2
2023-05-07T11:13:01.789Z,21.2
2023-05-07T11:14:01.399Z,21.2
2023-05-07T11:15:00.963Z,20.9
2023-05-07T11:16:01.571Z,21
2023-05-07T11:17:01.195Z,21.1
2023-05-07T11:18:01.861Z,21
2023-05-07T11:19:01.453Z,21
2023-05-07T11:20:01.040Z,21.1
2023-05-07T11:21:01.611Z,21.2
2023-05-07T11:22:01.202Z,21.3
2023-05-07T11:23:01.783Z,21.3
2023-05-07T11:24:01.417Z,21.1
2023-05-07T11:25:00.944Z,21
2023-05-07T11:26:01.552Z,21.3
2023-05-07T11:27:01.158Z,21.3
2023-05-07T11:28:01.744Z,21.6
2023-05-07T11:29:01.400Z,21.6
2023-05-07T11:30:00.925Z,21.5
2023-05-07T11:31:01.516Z,21.4
2023-05-07T11:32:01.154Z,21.2
2023-05-07T11:33:01.724Z,21.1
2023-05-07T11:34:01.497Z,21.2
2023-05-07T11:35:00.945Z,21.3
2023-05-07T11:36:01.512Z,21.4
2023-05-07T11:37:01.122Z,21.3
2023-05-07T11:38:01.692Z,21.5
2023-05-07T11:39:01.304Z,21.5
2023-05-07T11:40:01.885Z,21.4
2023-05-07T11:41:01.488Z,21.4
2023-05-07T11:42:01.111Z,21.3
2023-05-07T11:43:01.672Z,21.5
2023-05-07T11:44:01.267Z,21.7
2023-05-07T11:45:01.857Z,21.8
2023-05-07T11:46:01.458Z,21.9
2023-05-07T11:47:01.551Z,22.1
2023-05-07T11:48:01.262Z,21.9
2023-05-07T11:49:01.879Z,21.5
2023-05-07T11:50:01.509Z,21.7
2023-05-07T11:51:01.124Z,21.8
2023-05-07T11:52:01.711Z,21.8
2023-05-07T11:53:01.326Z,21.8
2023-05-07T11:54:00.976Z,21.8
2023-05-07T11:55:01.483Z,21.9
2023-05-07T11:56:01.098Z,22.2
2023-05-07T11:57:01.683Z,22.2
2023-05-07T11:58:01.272Z,22.4
2023-05-07T11:59:01.876Z,22.2
2023-05-07T12:00:01.497Z,22.6
2023-05-07T12:01:01.109Z,22.4
2023-05-07T12:02:01.749Z,22.3
2023-05-07T12:03:01.383Z,22.2
2023-05-07T12:04:01.998Z,22.1
2023-05-07T12:05:01.647Z,22
2023-05-07T12:06:01.232Z,22.3
2023-05-07T12:07:01.750Z,22.1
2023-05-07T12:08:01.343Z,22.2
2023-05-07T12:09:01.922Z,22
2023-05-07T12:10:01.545Z,22
2023-05-07T12:11:01.156Z,22
2023-05-07T12:12:01.743Z,22.3
2023-05-07T12:13:01.438Z,22.2
2023-05-07T12:14:01.926Z,22.3
2023-05-07T12:15:01.558Z,22.2
2023-05-07T12:16:01.169Z,22
2023-05-07T12:17:01.794Z,22
2023-05-07T12:18:01.424Z,21.8
2023-05-07T12:19:00.982Z,21.9
2023-05-07T12:20:01.613Z,22.1
2023-05-07T12:21:01.219Z,22.1
2023-05-07T12:22:01.834Z,22
2023-05-07T12:23:01.424Z,22.3
2023-05-07T12:24:01.010Z,22.6
2023-05-07T12:25:01.686Z,22.8
2023-05-07T12:26:01.270Z,22.7
2023-05-07T12:27:01.843Z,22.7
2023-05-07T12:28:01.436Z,22.3
2023-05-07T12:29:01.021Z,22.3
2023-05-07T12:30:01.625Z,22.6
2023-05-07T12:31:01.258Z,22.7
2023-05-07T12:32:01.825Z,22.4
2023-05-07T12:33:01.500Z,22.3
2023-05-07T12:34:01.056Z,22.5
2023-05-07T12:35:01.641Z,22.5
2023-05-07T12:36:01.261Z,22.9
2023-05-07T12:37:01.819Z,23.2
2023-05-07T12:38:01.430Z,23.4
2023-05-07T12:39:00.991Z,23.5
2023-05-07T12:40:01.577Z,23.2
2023-05-07T12:41:01.204Z,23
2023-05-07T12:42:01.753Z,22.8
2023-05-07T12:43:01.354Z,22.6
2023-05-07T12:44:01.941Z,22.7
2023-05-07T12:45:01.534Z,22.7
2023-05-07T12:46:01.229Z,22.4
2023-05-07T12:47:01.690Z,22.5
2023-05-07T12:48:01.308Z,22.6
2023-05-07T12:49:01.875Z,22.7
2023-05-07T12:50:01.463Z,22.5
2023-05-07T12:51:01.094Z,22.5
2023-05-07T12:52:01.644Z,22.4
2023-05-07T12:53:01.230Z,22.4
2023-05-07T12:54:01.886Z,22.4
2023-05-07T12:55:01.461Z,22.6
2023-05-07T12:56:01.110Z,22.3
2023-05-07T12:57:01.640Z,22.4
2023-05-07T12:58:01.248Z,22.5
2023-05-07T12:59:01.819Z,22.7
2023-05-07T13:00:01.435Z,22.6
2023-05-07T13:01:01.301Z,22.5
2023-05-07T13:02:01.659Z,22
2023-05-07T13:03:01.307Z,22
2023-05-07T13:04:01.880Z,21.8
2023-05-07T13:05:01.471Z,21.7
2023-05-07T13:06:01.065Z,21.7
2023-05-07T13:07:01.694Z,21.8
2023-05-07T13:08:01.312Z,21.8
2023-05-07T13:09:01.888Z,21.9
2023-05-07T13:10:01.554Z,21.9
2023-05-07T13:11:01.127Z,21.8
2023-05-07T13:12:01.709Z,21.5
2023-05-07T13:13:01.318Z,21.5
2023-05-07T13:14:01.887Z,21.4
2023-05-07T13:15:01.497Z,21.3
2023-05-07T13:16:01.171Z,21.4
2023-05-07T13:17:01.660Z,21.4
2023-05-07T13:18:01.309Z,21.3
2023-05-07T13:19:01.837Z,21.2
2023-05-07T13:20:01.428Z,21.2
2023-05-07T13:21:01.058Z,21.3
2023-05-07T13:22:01.610Z,21.4
2023-05-07T13:23:01.196Z,21.6